TABULAR FORECAST OF EN-ROUTE CONDITIONS LOW LEVEL                            MODEL TA1

DATE: NOVEMBER 02, 2018                                                                                 HEIGHT IN FEET MSL

VALID FOR DEPARTURE/ARRIVAL BETWEEN 10.00UTC AND 15.30UTC.

SPECIAL FEATURES OF THE METEOROLOGICAL SITUATION:

Advection of moist air

07° N                            4° N                            2° N

UPPER WINDS

(DEGREES TRUE AND KNOTS)

                              10000FT                       

                              5000FT

                              2000FT

TEMPERATURE

(DEGREES CELSIUS)

                        

    

 

                 100/25 PS 10

               070/20 PS 18      

                 120/15 PS 21
                    
        

 

CLOUDS

                                                    

                                    7000

      FEW TO SCT  CU––––

                                     2500 

                                       XXX

      SCT/ LOC BKN ST––––                                                   

                                        0100

VISIBILITY

10KM. IN LOC FOG LESS THAN 1000M

SIGNIFICANT WEATHER

BETWEEN 10- 12Z LOCL FOG, AFTERWARDS PERIODS OF SHOWERS

HEIGHT OF 0ΊC ISOTHERM (ft)

15000

FORECAST LOWEST QNH (hPa)

1010

 

SUPPLEMENTARY INFORMATION

Issued at NMC on: 10.00UTC november 02, 2018 BY FORECASTER: R.OEHLERS

Note:

1.   Positive and negative values are indicated by the prefix “PS” (plus) and “MS” (minus) respectively.

2.   When a single numerical value of an element is given in a forecast, it is to be interpreted as representing the most probable mean of a range of values which the element may assume during the period of forecast.

ABBREVIATIONS: SKC – 0 oktas, FEW – 1 to 2 oktas, SCT – 3 to 4 oktas, BKN – 5 to 7 oktas,  

OVC – 8 oktas, LYR – Layered, LOC – Locally, ISOL – Isolated, OCNL – Occasional, FRQ – Frequent.

METAR SMJP 021000Z VRB02KT 9999 SCT005 23/23 Q1011 NOSIG=

METAR SMZO 021000Z 00000KT 9999 FEW010 BKN030 25/24 Q1010 NOSIG=

METAR SMNI 021000Z 00000KT 9999 FEW015 FEW020CB 25/24 Q1010=